Time;durP1;ratioP1;P1;durP2;ratioP2;P2;SDS_P1;SDS_P2;PMS_P1;PMS_P2;Temp;Humidity;BMP_temperature;BMP_pressure;BME280_temperature;BME280_humidity;BME280_pressure;Samples;Min_cycle;Max_cycle;Signal;HPM_P1;HPM_P2
2022/09/17 00:00:43;;;;;;;12.57;1.70;;;12.70;99.90;;;;;;4770739;30;20051;-90
2022/09/17 00:03:09;;;;;;;6.43;1.58;;;12.60;99.90;;;;;;4764081;30;20051;-90
2022/09/17 00:05:36;;;;;;;9.90;1.67;;;12.50;99.90;;;;;;4764449;30;20513;-91
2022/09/17 00:08:04;;;;;;;4.20;0.65;;;12.60;99.90;;;;;;4753309;30;20432;-91
2022/09/17 00:10:30;;;;;;;14.20;1.08;;;12.50;99.90;;;;;;4755780;30;20521;-87
2022/09/17 00:12:57;;;;;;;3.30;0.63;;;13.70;99.90;;;;;;4739017;30;20143;-90
2022/09/17 00:15:22;;;;;;;10.20;0.90;;;12.60;99.90;;;;;;4739040;30;20517;-89
2022/09/17 00:17:59;;;;;;;6.50;0.70;;;12.70;99.90;;;;;;4765752;30;20051;-90
2022/09/17 00:20:25;;;;;;;8.45;0.88;;;12.70;99.90;;;;;;4756036;30;20052;-88
2022/09/17 00:22:51;;;;;;;3.55;0.65;;;13.30;99.90;;;;;;4770897;30;20116;-91
2022/09/17 00:25:18;;;;;;;9.13;0.85;;;12.60;99.90;;;;;;4771876;30;20055;-89
2022/09/17 00:27:44;;;;;;;11.48;1.70;;;12.50;99.90;;;;;;4775902;30;20050;-89
2022/09/17 00:30:11;;;;;;;9.65;0.95;;;12.50;99.90;;;;;;4775610;30;20051;-90
2022/09/17 00:32:37;;;;;;;10.57;0.93;;;12.40;99.90;;;;;;4739063;30;20056;-90
2022/09/17 00:35:03;;;;;;;8.38;0.80;;;12.20;99.90;;;;;;4757026;30;20047;-90
2022/09/17 00:37:28;;;;;;;5.22;1.08;;;12.10;99.90;;;;;;4756334;30;20063;-90
2022/09/17 00:39:56;;;;;;;10.43;1.25;;;12.00;99.90;;;;;;4756584;30;20040;-90
2022/09/17 00:42:22;;;;;;;5.80;0.60;;;11.30;99.90;;;;;;4770506;30;20048;-90
2022/09/17 00:44:53;;;;;;;11.68;1.05;;;11.80;99.90;;;;;;4772105;30;20516;-89
2022/09/17 00:47:29;;;;;;;10.85;0.98;;;11.90;99.90;;;;;;4772158;30;20043;-90
2022/09/17 00:50:06;;;;;;;9.82;0.90;;;11.80;99.90;;;;;;4772116;30;20514;-90
2022/09/17 00:52:42;;;;;;;10.35;1.10;;;11.90;99.90;;;;;;4755429;30;20048;-90
2022/09/17 00:55:19;;;;;;;8.18;1.02;;;11.90;99.90;;;;;;4738202;30;20048;-91
2022/09/17 00:57:45;;;;;;;10.43;1.00;;;11.90;99.90;;;;;;4754071;30;20048;-92
2022/09/17 01:00:16;;;;;;;7.50;0.90;;;11.90;99.90;;;;;;4755941;30;20067;-91
2022/09/17 01:02:42;;;;;;;12.43;1.65;;;12.00;99.90;;;;;;4752179;30;20059;-90
2022/09/17 01:05:08;;;;;;;9.27;1.60;;;12.60;99.90;;;;;;4747018;30;20047;-91
2022/09/17 01:08:06;;;;;;;12.63;2.13;;;12.00;99.90;;;;;;4751022;30;20422;-90
2022/09/17 01:10:42;;;;;;;12.48;1.33;;;12.10;99.90;;;;;;4771269;30;20052;-88
2022/09/17 01:13:20;;;;;;;5.18;0.80;;;12.60;99.90;;;;;;4768226;30;20052;-90
2022/09/17 01:16:13;;;;;;;10.75;0.95;;;12.00;99.90;;;;;;4769566;30;20104;-89
2022/09/17 01:19:05;;;;;;;5.00;0.60;;;12.50;99.90;;;;;;4755299;30;20059;-90
2022/09/17 01:22:01;;;;;;;10.48;0.93;;;12.40;99.90;;;;;;4704522;30;20069;-90
2022/09/17 01:24:47;;;;;;;5.57;1.10;;;12.50;99.90;;;;;;4700213;30;20056;-89
2022/09/17 01:27:41;;;;;;;10.90;1.00;;;12.60;99.90;;;;;;4689048;30;20064;-90
2022/09/17 01:30:21;;;;;;;8.10;0.90;;;12.50;99.90;;;;;;4698459;30;20049;-89
2022/09/17 01:33:23;;;;;;;9.18;2.03;;;12.60;99.90;;;;;;4693247;30;20403;-90
2022/09/17 01:35:58;;;;;;;7.18;0.90;;;12.60;99.90;;;;;;4672357;30;20054;-89
2022/09/17 01:38:34;;;;;;;6.03;0.65;;;12.30;99.90;;;;;;4664423;30;20069;-90
2022/09/17 01:41:11;;;;;;;;;;;12.60;99.90;;;;;;4650557;30;20517;-89
2022/09/17 01:43:48;;;;;;;9.50;1.70;;;12.70;99.90;;;;;;4680694;30;19935;-90
2022/09/17 01:46:26;;;;;;;5.28;0.73;;;12.80;99.90;;;;;;4673148;30;20050;-89
2022/09/17 01:48:59;;;;;;;7.72;0.63;;;12.60;99.90;;;;;;4681610;30;20050;-89
2022/09/17 01:51:30;;;;;;;5.30;0.88;;;12.40;99.90;;;;;;4660381;30;20076;-89
2022/09/17 01:54:05;;;;;;;4.65;0.57;;;12.40;99.90;;;;;;4664507;30;20058;-89
2022/09/17 01:56:38;;;;;;;7.45;0.90;;;12.40;99.90;;;;;;4668269;30;20181;-89
2022/09/17 01:59:30;;;;;;;9.27;1.13;;;12.40;99.90;;;;;;4718994;30;20060;-90
2022/09/17 02:02:37;;;;;;;4.05;1.38;;;12.90;99.90;;;;;;4740024;30;20056;-90
2022/09/17 02:05:21;;;;;;;14.60;1.27;;;12.20;99.90;;;;;;4711455;30;20061;-90
2022/09/17 02:08:05;;;;;;;6.22;0.80;;;12.20;99.90;;;;;;4710032;30;20061;-89
2022/09/17 02:10:36;;;;;;;5.22;0.73;;;12.20;99.90;;;;;;4685370;30;20085;-90
2022/09/17 02:13:14;;;;;;;5.65;0.70;;;12.20;99.90;;;;;;4692225;30;20061;-88
2022/09/17 02:15:46;;;;;;;10.68;2.00;;;12.30;99.90;;;;;;4697909;30;20094;-90
2022/09/17 02:18:18;;;;;;;8.15;0.90;;;12.30;99.90;;;;;;4706266;30;20054;-89
2022/09/17 02:21:01;;;;;;;9.45;0.80;;;12.20;99.90;;;;;;4710887;30;20061;-89
2022/09/17 02:23:37;;;;;;;10.93;0.75;;;12.30;99.90;;;;;;4711308;30;20066;-87
2022/09/17 02:26:17;;;;;;;4.63;0.77;;;12.30;99.90;;;;;;4712868;30;20041;-86
2022/09/17 02:36:10;;;;;;;7.22;0.88;;;12.50;99.90;;;;;;4771820;30;20123;-86
2022/09/17 02:38:42;;;;;;;9.13;0.90;;;12.80;99.90;;;;;;4757169;30;20064;-88
2022/09/17 02:41:27;;;;;;;5.95;0.73;;;12.70;99.90;;;;;;4758225;30;20052;-87
2022/09/17 02:43:59;;;;;;;5.50;0.52;;;12.70;99.90;;;;;;4751456;30;20052;-90
2022/09/17 02:46:58;;;;;;;8.95;0.93;;;12.70;99.90;;;;;;4773531;30;20236;-88
2022/09/17 02:49:42;;;;;;;9.48;0.80;;;12.50;99.90;;;;;;4779735;30;20068;-89
2022/09/17 02:52:26;;;;;;;8.93;1.23;;;12.70;99.90;;;;;;4746359;30;20048;-89
2022/09/17 02:55:10;;;;;;;7.32;1.05;;;12.60;99.90;;;;;;4737435;30;20522;-88
2022/09/17 02:58:04;;;;;;;6.28;1.10;;;12.70;99.90;;;;;;4742360;30;20105;-88
2022/09/17 03:00:36;;;;;;;8.95;0.80;;;12.60;99.90;;;;;;4753321;30;20131;-88
2022/09/17 03:03:23;;;;;;;4.75;0.98;;;12.40;99.90;;;;;;4753392;30;20053;-89
2022/09/17 03:05:53;;;;;;;4.38;0.50;;;12.30;99.90;;;;;;4754748;30;20051;-90
2022/09/17 03:08:29;;;;;;;6.35;0.70;;;12.20;99.90;;;;;;4774201;30;20051;-88
2022/09/17 03:11:15;;;;;;;8.63;0.83;;;12.20;99.90;;;;;;4757753;30;20095;-89
2022/09/17 03:18:34;;;;;;;4.13;0.80;;;12.10;99.90;;;;;;4768574;30;20104;-87
2022/09/17 03:21:11;;;;;;;6.05;0.80;;;12.10;99.90;;;;;;4700028;30;20443;-88
2022/09/17 03:23:51;;;;;;;6.65;0.88;;;12.00;99.90;;;;;;4700202;30;20142;-89
2022/09/17 03:26:20;;;;;;;5.43;0.60;;;12.00;99.90;;;;;;4699980;30;20060;-88
2022/09/17 03:28:46;;;;;;;4.95;0.60;;;11.70;99.90;;;;;;4692153;30;20136;-88
2022/09/17 03:31:12;;;;;;;6.13;0.70;;;12.30;99.90;;;;;;4701647;30;20551;-90
2022/09/17 03:33:47;;;;;;;7.38;0.70;;;11.90;99.90;;;;;;4703330;30;20072;-86
2022/09/17 03:36:13;;;;;;;3.22;0.50;;;12.30;99.90;;;;;;4704223;30;20506;-90
2022/09/17 03:38:39;;;;;;;3.85;0.52;;;13.00;99.90;;;;;;4702075;30;20064;-88
2022/09/17 03:41:06;;;;;;;6.10;0.82;;;12.00;99.90;;;;;;4688486;30;20049;-89
2022/09/17 03:43:32;;;;;;;4.10;0.68;;;12.00;99.90;;;;;;4686919;30;20518;-89
2022/09/17 03:45:59;;;;;;;8.35;0.80;;;12.20;99.90;;;;;;4690354;30;20132;-89
2022/09/17 03:48:25;;;;;;;8.43;1.02;;;12.10;99.90;;;;;;4701440;30;20057;-89
2022/09/17 03:50:50;;;;;;;6.60;0.50;;;11.60;99.90;;;;;;4674085;30;20062;-90
2022/09/17 03:53:17;;;;;;;9.45;1.08;;;12.70;99.90;;;;;;4700690;30;20053;-88
2022/09/17 03:55:42;;;;;;;12.48;0.90;;;11.90;99.90;;;;;;4694408;30;20064;-89
2022/09/17 03:58:08;;;;;;;4.20;0.60;;;11.70;99.90;;;;;;4762945;30;20067;-89
2022/09/17 04:00:36;;;;;;;7.28;0.90;;;12.60;99.90;;;;;;4770111;30;20047;-88
2022/09/17 04:03:05;;;;;;;7.53;2.17;;;12.20;99.90;;;;;;4755331;30;20056;-89
2022/09/17 04:05:31;;;;;;;8.10;0.90;;;11.60;99.90;;;;;;4747364;30;20052;-90
2022/09/17 04:07:57;;;;;;;4.18;0.60;;;11.70;99.90;;;;;;4753333;30;20052;-89
2022/09/17 04:10:23;;;;;;;9.85;0.80;;;12.00;99.90;;;;;;4748571;30;20101;-89
2022/09/17 04:12:54;;;;;;;4.07;0.55;;;11.60;99.90;;;;;;4740314;30;20048;-88
2022/09/17 04:15:20;;;;;;;6.95;0.55;;;11.60;99.90;;;;;;4754760;30;20121;-89
2022/09/17 04:17:46;;;;;;;4.50;0.70;;;11.60;99.90;;;;;;4744399;30;20044;-87
2022/09/17 04:20:12;;;;;;;5.10;1.67;;;11.60;99.90;;;;;;4754824;30;20614;-90
2022/09/17 04:22:37;;;;;;;4.22;0.80;;;11.60;99.90;;;;;;4755396;30;20387;-91
2022/09/17 04:25:03;;;;;;;8.25;0.60;;;12.30;99.90;;;;;;4738561;30;20491;-89
2022/09/17 04:27:29;;;;;;;5.90;0.65;;;11.40;99.90;;;;;;4739144;30;20052;-89
2022/09/17 04:29:55;;;;;;;4.80;0.65;;;12.30;99.90;;;;;;4754301;30;20367;-90
2022/09/17 04:32:22;;;;;;;3.15;0.52;;;12.10;99.90;;;;;;4739159;30;20084;-91
2022/09/17 04:34:47;;;;;;;7.63;0.70;;;11.30;99.90;;;;;;4738447;30;20060;-88
2022/09/17 04:37:13;;;;;;;5.80;0.60;;;11.70;99.90;;;;;;4754120;30;20055;-89
2022/09/17 04:39:39;;;;;;;14.40;0.90;;;11.80;99.90;;;;;;4738957;30;20048;-92
2022/09/17 04:42:05;;;;;;;3.40;0.60;;;12.50;99.90;;;;;;4737945;30;20099;-90
2022/09/17 04:44:33;;;;;;;7.40;0.60;;;12.00;99.90;;;;;;4755190;30;20049;-89
2022/09/17 04:46:59;;;;;;;1.80;0.52;;;12.00;99.90;;;;;;4738003;30;20063;-88
2022/09/17 04:49:28;;;;;;;4.68;0.70;;;12.30;99.90;;;;;;4738286;30;20556;-89
2022/09/17 04:51:57;;;;;;;6.95;0.63;;;11.90;99.90;;;;;;4753740;30;20680;-89
2022/09/17 04:54:23;;;;;;;4.55;0.68;;;13.10;99.90;;;;;;4759103;30;20052;-89
2022/09/17 04:56:49;;;;;;;5.55;0.40;;;12.00;99.90;;;;;;4737943;30;20054;-89
2022/09/17 04:59:17;;;;;;;3.50;0.40;;;11.40;99.90;;;;;;4749704;30;20493;-89
2022/09/17 05:01:44;;;;;;;11.73;0.93;;;11.70;99.90;;;;;;4771344;30;20058;-90
2022/09/17 05:04:15;;;;;;;7.22;1.17;;;11.70;99.90;;;;;;4771425;30;20055;-92
2022/09/17 05:06:45;;;;;;;7.75;0.57;;;11.70;99.90;;;;;;4759353;24;20056;-92
2022/09/17 05:09:35;;;;;;;5.78;0.60;;;11.70;99.90;;;;;;4771823;30;20044;-86
2022/09/17 05:12:33;;;;;;;;;;;;;;;;;;;;;
2022/09/17 05:18:50;;;;;;;4.40;0.82;;;11.60;99.90;;;;;;4771747;30;19920;-89
2022/09/17 05:21:34;;;;;;;9.50;0.63;;;11.80;99.90;;;;;;4755258;30;20048;-92
2022/09/17 05:24:18;;;;;;;10.68;1.42;;;11.90;99.90;;;;;;4755825;30;20143;-93
2022/09/17 05:37:41;;;;;;;13.20;3.05;;;12.10;99.90;;;;;;4762906;30;20047;-92
2022/09/17 05:40:15;;;;;;;;;;;12.40;99.90;;;;;;4740969;30;20082;-92
2022/09/17 05:49:40;;;;;;;4.82;1.23;;;12.50;99.90;;;;;;4722614;30;20079;-93
2022/09/17 05:56:20;;;;;;;5.32;0.70;;;12.60;99.90;;;;;;4668705;30;20113;-92
2022/09/17 06:03:02;;;;;;;;;;;;;;;;;;;;;
2022/09/17 06:05:32;;;;;;;8.70;0.70;;;12.20;99.90;;;;;;4717791;30;20048;-92
2022/09/17 06:07:58;;;;;;;1.85;0.40;;;12.70;99.90;;;;;;4779237;30;20130;-92
2022/09/17 06:10:23;;;;;;;9.98;1.42;;;12.60;99.90;;;;;;4742994;30;20085;-91
2022/09/17 06:12:55;;;;;;;11.07;1.17;;;12.50;99.90;;;;;;4738708;30;20475;-90
2022/09/17 06:15:24;;;;;;;3.47;0.52;;;12.40;99.90;;;;;;4747134;30;20060;-92
2022/09/17 06:17:50;;;;;;;1.73;0.75;;;12.40;99.90;;;;;;4753665;30;20048;-90
2022/09/17 06:20:16;;;;;;;3.92;0.60;;;12.60;99.90;;;;;;4755576;30;20051;-91
2022/09/17 06:22:44;;;;;;;5.53;0.75;;;12.20;99.90;;;;;;4755141;30;20064;-92
2022/09/17 06:25:10;;;;;;;5.32;0.60;;;12.40;99.90;;;;;;4755204;30;20040;-91
2022/09/17 06:27:36;;;;;;;2.60;0.32;;;12.20;99.90;;;;;;4767005;30;20062;-91
2022/09/17 06:30:03;;;;;;;4.38;0.50;;;12.30;99.90;;;;;;4754062;30;20051;-90
2022/09/17 06:32:29;;;;;;;4.45;0.60;;;12.30;99.90;;;;;;4743034;30;20059;-92
2022/09/17 06:34:56;;;;;;;4.15;1.10;;;12.90;99.90;;;;;;4754511;30;20426;-90
2022/09/17 06:37:29;;;;;;;2.90;0.40;;;12.40;99.90;;;;;;4738362;30;20058;-91
2022/09/17 06:39:56;;;;;;;10.00;0.82;;;13.00;99.90;;;;;;4771040;30;20051;-90
2022/09/17 06:42:22;;;;;;;6.78;0.77;;;12.70;99.90;;;;;;4770375;30;20058;-91
2022/09/17 06:44:47;;;;;;;4.20;0.95;;;12.80;99.90;;;;;;4763697;30;20123;-92
2022/09/17 06:47:13;;;;;;;7.45;0.98;;;12.80;99.90;;;;;;4738334;30;20052;-90
2022/09/17 06:49:39;;;;;;;3.38;0.52;;;12.90;99.90;;;;;;4739328;30;20048;-91
2022/09/17 06:52:05;;;;;;;10.27;0.88;;;12.80;99.90;;;;;;4767980;30;20040;-89
2022/09/17 06:54:31;;;;;;;12.90;1.10;;;12.70;99.90;;;;;;4767906;30;20087;-91
2022/09/17 06:56:59;;;;;;;11.18;1.33;;;12.80;99.90;;;;;;4737400;30;20087;-91
2022/09/17 06:59:27;;;;;;;5.38;0.60;;;12.80;99.90;;;;;;4753961;30;20532;-91
2022/09/17 07:01:54;;;;;;;7.07;0.90;;;12.90;99.90;;;;;;4738484;30;20052;-92
2022/09/17 07:04:19;;;;;;;3.92;0.75;;;12.90;99.90;;;;;;4740344;30;20064;-91
2022/09/17 07:06:56;;;;;;;6.05;1.05;;;13.00;99.90;;;;;;4761306;30;20056;-92
2022/09/17 07:09:22;;;;;;;6.00;1.05;;;13.60;99.90;;;;;;4741437;30;20132;-90
2022/09/17 07:12:08;;;;;;;5.07;0.73;;;13.50;99.90;;;;;;4740742;30;20135;-91
2022/09/17 07:21:56;;;;;;;2.88;0.60;;;13.00;99.90;;;;;;4756886;30;20110;-92
2022/09/17 07:24:21;;;;;;;3.90;0.70;;;12.70;99.90;;;;;;4751084;30;20055;-92
2022/09/17 07:26:49;;;;;;;6.70;0.63;;;12.50;99.90;;;;;;4757640;30;20405;-89
2022/09/17 07:29:15;;;;;;;4.80;0.40;;;12.60;99.90;;;;;;4774338;30;20051;-92
2022/09/17 07:31:41;;;;;;;9.27;0.68;;;12.50;99.90;;;;;;4750273;30;20186;-91
2022/09/17 07:34:07;;;;;;;2.55;0.30;;;12.60;99.90;;;;;;4741077;30;20143;-91
2022/09/17 07:36:33;;;;;;;3.08;0.40;;;12.60;99.90;;;;;;4767202;30;20131;-92
2022/09/17 07:38:59;;;;;;;2.50;0.43;;;12.40;99.90;;;;;;4743192;30;20078;-92
2022/09/17 07:41:27;;;;;;;2.53;0.50;;;12.90;99.90;;;;;;4756503;30;20052;-91
2022/09/17 07:43:56;;;;;;;2.95;0.50;;;13.20;99.90;;;;;;4774021;30;20048;-91
2022/09/17 07:46:41;;;;;;;7.07;0.60;;;13.10;99.90;;;;;;4757698;30;20052;-91
2022/09/17 07:59:44;;;;;;;1.67;0.40;;;12.60;99.90;;;;;;5056133;24;20321;-93
2022/09/17 08:02:57;;;;;;;4.07;0.30;;;12.40;99.90;;;;;;4772373;30;20055;-91
2022/09/17 08:05:24;;;;;;;3.95;0.50;;;12.40;99.90;;;;;;4735468;30;20251;-93
2022/09/17 08:07:51;;;;;;;5.63;0.60;;;12.40;99.90;;;;;;4758432;30;20051;-88
2022/09/17 08:10:21;;;;;;;3.58;0.40;;;12.40;99.90;;;;;;4775885;30;20040;-87
2022/09/17 08:13:04;;;;;;;4.13;0.55;;;12.20;99.90;;;;;;4777652;30;20044;-92
2022/09/17 08:15:30;;;;;;;4.93;0.40;;;12.90;99.90;;;;;;4789514;30;20039;-87
2022/09/17 08:17:57;;;;;;;10.00;0.80;;;12.90;99.90;;;;;;4774483;30;20391;-87
2022/09/17 08:20:25;;;;;;;5.55;0.50;;;13.20;99.90;;;;;;4784034;30;20048;-90
2022/09/17 08:22:58;;;;;;;7.10;0.80;;;13.40;99.90;;;;;;4773976;30;20059;-89
2022/09/17 08:25:25;;;;;;;6.55;0.80;;;13.40;99.90;;;;;;4749423;30;20059;-87
2022/09/17 08:27:55;;;;;;;6.97;0.80;;;13.50;99.90;;;;;;4783676;30;20070;-89
2022/09/17 08:30:21;;;;;;;3.10;0.40;;;13.80;99.90;;;;;;4773165;30;20439;-94
2022/09/17 08:32:50;;;;;;;7.40;0.85;;;13.80;99.90;;;;;;4757129;30;20055;-91
2022/09/17 08:35:16;;;;;;;5.00;1.13;;;14.10;99.90;;;;;;4742026;30;20076;-87
2022/09/17 08:37:42;;;;;;;7.38;0.95;;;14.80;99.90;;;;;;4757108;30;20060;-92
2022/09/17 08:40:15;;;;;;;3.95;0.60;;;14.50;99.90;;;;;;4756282;30;20060;-89
2022/09/17 08:42:53;;;;;;;4.55;0.88;;;14.50;99.90;;;;;;4756706;30;20060;-90
2022/09/17 08:49:31;;;;;;;8.85;0.73;;;14.80;99.90;;;;;;4771911;30;20054;-90
2022/09/17 08:52:14;;;;;;;5.00;0.43;;;14.70;99.90;;;;;;4741954;30;20051;-91
2022/09/17 08:55:17;;;;;;;2.22;0.60;;;14.40;99.90;;;;;;4771480;30;20055;-93
2022/09/17 08:58:26;;;;;;;1.85;0.40;;;14.00;99.90;;;;;;4752577;30;20052;-93
2022/09/17 09:01:09;;;;;;;2.70;0.40;;;13.60;99.90;;;;;;4716686;30;20055;-91
2022/09/17 09:04:02;;;;;;;4.90;0.63;;;13.40;99.90;;;;;;4716672;30;20057;-90
2022/09/17 09:06:47;;;;;;;2.00;0.50;;;13.30;99.90;;;;;;4701789;30;20057;-87
2022/09/17 09:09:16;;;;;;;4.63;0.38;;;13.30;99.90;;;;;;4717584;30;20056;-90
2022/09/17 09:11:43;;;;;;;6.32;0.47;;;13.40;99.90;;;;;;4702255;30;20065;-92
2022/09/17 09:14:17;;;;;;;2.50;0.30;;;14.70;99.90;;;;;;4703300;30;20092;-89
2022/09/17 09:16:44;;;;;;;2.20;0.57;;;13.80;99.90;;;;;;4718301;30;20061;-88
2022/09/17 09:19:29;;;;;;;6.68;0.52;;;14.00;99.90;;;;;;4719351;30;20072;-91
2022/09/17 09:22:13;;;;;;;5.40;0.63;;;14.10;99.90;;;;;;4703499;30;20119;-89
2022/09/17 09:24:45;;;;;;;8.32;1.25;;;14.30;99.90;;;;;;4700626;30;20065;-90
2022/09/17 09:27:46;;;;;;;6.35;0.60;;;14.50;99.90;;;;;;4709817;30;20049;-89
2022/09/17 09:30:15;;;;;;;7.25;0.75;;;14.70;99.90;;;;;;4684349;30;20066;-90
2022/09/17 09:32:49;;;;;;;4.85;0.63;;;14.80;99.90;;;;;;4668218;30;20065;-91
2022/09/17 09:35:22;;;;;;;2.47;0.63;;;14.60;99.90;;;;;;4667922;30;20066;-92
2022/09/17 09:38:26;;;;;;;3.05;0.50;;;14.50;99.90;;;;;;4690186;30;20537;-92
2022/09/17 09:41:14;;;;;;;8.05;0.70;;;14.40;99.90;;;;;;4669481;30;20429;-92
2022/09/17 09:44:12;;;;;;;5.57;0.50;;;14.20;99.90;;;;;;4669002;30;20077;-92
2022/09/17 09:46:41;;;;;;;5.90;1.00;;;14.10;99.90;;;;;;4618906;31;20067;-90
2022/09/17 09:49:30;;;;;;;3.70;0.70;;;13.90;99.90;;;;;;4634562;31;20070;-91
2022/09/17 09:52:15;;;;;;;9.85;1.00;;;13.70;99.90;;;;;;4633629;30;20529;-93
2022/09/17 09:54:52;;;;;;;8.98;0.70;;;13.80;99.90;;;;;;4619947;30;20141;-90
2022/09/17 09:57:31;;;;;;;9.90;1.33;;;13.90;99.90;;;;;;4632879;31;20079;-92
2022/09/17 10:00:25;;;;;;;9.90;0.95;;;14.40;99.90;;;;;;4618971;30;20063;-91
2022/09/17 10:03:14;;;;;;;7.38;0.98;;;13.70;99.90;;;;;;4618900;31;20070;-92
2022/09/17 10:05:59;;;;;;;13.75;1.13;;;14.20;99.90;;;;;;4644469;30;20058;-92
2022/09/17 10:08:26;;;;;;;8.75;0.52;;;14.40;99.90;;;;;;4659103;30;20192;-88
2022/09/17 10:11:01;;;;;;;8.38;0.88;;;15.40;99.90;;;;;;4659630;30;20090;-90
2022/09/17 10:13:36;;;;;;;6.53;0.60;;;14.90;99.90;;;;;;4639063;30;20051;-92
2022/09/17 10:20:09;;;;;;;6.15;0.70;;;15.00;99.90;;;;;;4667191;30;20065;-94
2022/09/17 10:22:41;;;;;;;4.35;0.95;;;15.10;99.90;;;;;;4663745;30;20073;-93
2022/09/17 10:25:20;;;;;;;3.78;0.68;;;15.20;99.90;;;;;;4686505;30;20200;-91
2022/09/17 10:27:46;;;;;;;11.65;0.50;;;15.30;99.90;;;;;;4688806;30;20049;-90
2022/09/17 10:30:16;;;;;;;7.75;0.90;;;15.40;99.90;;;;;;4700636;30;20443;-92
2022/09/17 10:32:42;;;;;;;7.35;0.60;;;15.40;99.90;;;;;;4699203;30;20154;-92
2022/09/17 10:35:13;;;;;;;3.60;0.40;;;15.50;99.60;;;;;;4693862;30;20062;-91
2022/09/17 10:37:44;;;;;;;9.48;0.93;;;15.70;99.70;;;;;;4698528;30;20057;-91
2022/09/17 10:40:19;;;;;;;2.80;0.50;;;15.60;99.90;;;;;;4701033;30;20046;-91
2022/09/17 10:42:50;;;;;;;6.95;0.77;;;15.90;99.90;;;;;;4720970;30;20136;-93
2022/09/17 10:45:27;;;;;;;7.38;0.55;;;15.90;99.90;;;;;;4755887;30;20079;-93
2022/09/17 10:47:55;;;;;;;4.78;0.98;;;16.20;99.40;;;;;;4756503;30;20055;-93
2022/09/17 10:50:30;;;;;;;7.70;0.60;;;16.10;99.90;;;;;;4757422;30;20131;-92
2022/09/17 10:53:14;;;;;;;4.20;0.50;;;16.30;99.90;;;;;;4773989;30;20050;-90
2022/09/17 10:55:46;;;;;;;5.85;0.50;;;16.30;98.90;;;;;;4757350;30;20079;-91
2022/09/17 10:58:44;;;;;;;5.93;0.80;;;16.40;98.30;;;;;;4773046;30;20107;-93
2022/09/17 11:01:47;;;;;;;6.53;0.40;;;16.30;98.10;;;;;;4770640;30;20097;-93
2022/09/17 11:04:35;;;;;;;9.48;0.60;;;16.60;97.70;;;;;;4773635;30;20056;-94
2022/09/17 11:07:25;;;;;;;10.05;0.90;;;16.80;96.30;;;;;;4753250;30;20060;-95
2022/09/17 11:09:56;;;;;;;6.07;0.30;;;16.90;95.70;;;;;;4782706;30;20051;-91
2022/09/17 11:12:31;;;;;;;8.77;0.60;;;16.70;95.00;;;;;;4783150;30;20056;-92
2022/09/17 11:15:29;;;;;;;3.72;0.52;;;16.90;94.90;;;;;;4757095;30;20063;-92
2022/09/17 11:18:22;;;;;;;7.88;0.60;;;17.00;94.50;;;;;;4773496;30;20059;-93
2022/09/17 11:20:51;;;;;;;6.38;0.50;;;16.90;94.80;;;;;;4756166;30;20052;-92
2022/09/17 11:23:42;;;;;;;3.05;0.40;;;17.00;95.60;;;;;;4771173;30;20059;-90
2022/09/17 11:26:26;;;;;;;7.13;0.73;;;17.20;95.00;;;;;;4754451;30;20090;-90
2022/09/17 11:29:25;;;;;;;4.40;0.80;;;17.40;94.70;;;;;;4770043;30;20511;-94
2022/09/17 11:33:18;;;;;;;8.20;0.90;;;17.50;95.10;;;;;;4770482;30;20105;-90
2022/09/17 11:35:58;;;;;;;3.67;0.43;;;17.50;95.70;;;;;;4710790;30;20088;-92
2022/09/17 11:38:33;;;;;;;4.57;0.60;;;17.10;95.70;;;;;;4672328;30;20066;-91
2022/09/17 11:41:15;;;;;;;6.95;0.60;;;17.00;95.80;;;;;;4679910;30;20066;-90
2022/09/17 11:44:14;;;;;;;7.00;0.80;;;17.10;95.70;;;;;;4680007;30;20117;-89
2022/09/17 11:46:48;;;;;;;7.47;0.70;;;17.30;95.70;;;;;;4666140;30;20137;-89
2022/09/17 11:49:44;;;;;;;7.82;1.35;;;17.30;95.50;;;;;;4670987;30;20101;-88
2022/09/17 11:52:28;;;;;;;10.15;0.80;;;17.60;94.60;;;;;;4670625;30;20062;-90
2022/09/17 11:55:29;;;;;;;6.35;0.60;;;17.40;95.50;;;;;;4685257;30;20066;-89
2022/09/17 11:58:16;;;;;;;5.43;0.57;;;17.40;95.40;;;;;;4669429;30;20069;-90
2022/09/17 12:01:00;;;;;;;7.18;1.33;;;16.90;96.00;;;;;;4668966;30;20408;-93
2022/09/17 12:03:47;;;;;;;9.20;0.95;;;17.00;95.90;;;;;;4668623;30;20070;-91
2022/09/17 12:06:17;;;;;;;3.53;0.50;;;17.20;95.00;;;;;;4669593;30;20072;-91
2022/09/17 12:08:56;;;;;;;5.63;0.90;;;17.20;96.00;;;;;;4684488;30;20528;-91
2022/09/17 12:11:36;;;;;;;8.60;0.90;;;17.40;95.30;;;;;;4710514;30;20065;-93
2022/09/17 12:14:23;;;;;;;5.38;0.90;;;17.10;95.50;;;;;;4756108;30;20051;-89
2022/09/17 12:17:22;;;;;;;7.55;0.45;;;17.20;95.70;;;;;;4763002;30;20055;-92
2022/09/17 12:20:02;;;;;;;5.63;0.65;;;17.00;96.40;;;;;;4756465;30;20112;-92
2022/09/17 12:22:36;;;;;;;4.07;0.60;;;17.00;96.00;;;;;;4759245;30;20134;-91
2022/09/17 12:25:02;;;;;;;2.50;0.35;;;16.80;95.80;;;;;;4758722;30;20501;-93
2022/09/17 12:27:55;;;;;;;3.80;0.40;;;16.70;95.60;;;;;;4776137;30;20058;-93
2022/09/17 12:30:27;;;;;;;2.03;0.30;;;16.50;95.60;;;;;;4753475;30;20437;-93
2022/09/17 12:33:20;;;;;;;3.83;0.25;;;16.20;94.40;;;;;;4755295;30;20516;-94
2022/09/17 12:36:21;;;;;;;7.93;0.50;;;15.90;95.90;;;;;;4746807;30;20075;-93
2022/09/17 12:39:23;;;;;;;5.93;0.32;;;15.80;96.40;;;;;;4757302;30;20504;-85
2022/09/17 12:42:16;;;;;;;3.83;0.57;;;15.50;97.40;;;;;;4756025;30;20109;-86
2022/09/17 12:44:56;;;;;;;3.85;0.63;;;15.50;98.10;;;;;;4772375;30;20087;-87
2022/09/17 12:47:47;;;;;;;7.22;0.90;;;15.30;99.10;;;;;;4759207;30;20055;-92
2022/09/17 12:50:17;;;;;;;3.95;0.60;;;15.60;99.20;;;;;;4772615;30;20051;-92
2022/09/17 12:53:15;;;;;;;5.13;0.57;;;15.80;99.10;;;;;;4741220;30;20055;-89
2022/09/17 12:56:05;;;;;;;5.32;1.02;;;16.00;97.70;;;;;;4772892;30;20055;-92
2022/09/17 12:59:10;;;;;;;6.47;0.55;;;15.80;98.20;;;;;;4772459;30;20099;-90
2022/09/17 13:01:55;;;;;;;8.95;0.80;;;15.90;98.40;;;;;;4772305;30;20078;-88
2022/09/17 13:04:50;;;;;;;7.95;1.10;;;16.40;98.10;;;;;;4756993;30;20059;-89
2022/09/17 13:07:42;;;;;;;5.45;0.60;;;16.60;98.60;;;;;;4756411;30;20083;-91
2022/09/17 13:10:41;;;;;;;7.57;0.95;;;16.50;99.90;;;;;;4770764;30;20497;-90
2022/09/17 13:13:31;;;;;;;4.80;0.50;;;16.60;99.60;;;;;;4771829;30;20079;-91
2022/09/17 13:16:23;;;;;;;4.35;0.30;;;16.70;98.70;;;;;;4754536;30;20055;-86
2022/09/17 13:19:29;;;;;;;4.38;0.55;;;17.00;96.00;;;;;;4754341;30;20066;-91
2022/09/17 13:22:20;;;;;;;2.63;0.40;;;17.50;95.90;;;;;;4760559;30;20059;-91
2022/09/17 13:27:58;;;;;;;9.85;0.75;;;16.80;96.70;;;;;;4989913;24;20052;-89
2022/09/17 17:16:50;;;;;;;5.20;0.60;;;13.30;99.90;;;;;;5099484;24;20367;-87
2022/09/17 17:19:23;;;;;;;3.25;0.45;;;13.30;99.90;;;;;;4773058;30;20055;-86
2022/09/17 17:21:50;;;;;;;2.60;0.47;;;13.20;99.90;;;;;;4757828;30;20498;-90
2022/09/17 17:24:16;;;;;;;3.80;0.50;;;13.30;99.90;;;;;;4755728;30;20094;-87
2022/09/17 17:26:41;;;;;;;5.28;0.50;;;13.60;99.90;;;;;;4771003;30;20466;-86
2022/09/17 17:29:07;;;;;;;4.80;0.55;;;13.30;99.90;;;;;;4755113;30;20215;-88
2022/09/17 17:31:36;;;;;;;6.28;0.60;;;13.30;99.90;;;;;;4771128;30;20079;-89
2022/09/17 17:34:02;;;;;;;6.15;0.60;;;13.30;99.90;;;;;;4770994;30;20123;-88
2022/09/17 17:36:28;;;;;;;3.10;0.60;;;13.20;99.90;;;;;;4770676;30;20127;-87
2022/09/17 17:38:58;;;;;;;3.25;0.50;;;13.00;99.90;;;;;;4756678;30;20051;-85
2022/09/17 17:41:34;;;;;;;5.20;0.68;;;12.80;99.90;;;;;;4743432;30;20063;-89
2022/09/17 17:44:00;;;;;;;5.95;1.35;;;12.70;99.90;;;;;;4755638;30;20086;-89
2022/09/17 17:46:26;;;;;;;4.13;0.88;;;12.60;99.90;;;;;;4770843;30;20044;-87
2022/09/17 17:48:52;;;;;;;3.63;0.60;;;12.40;99.90;;;;;;4751783;30;20525;-90
2022/09/17 17:51:18;;;;;;;7.45;0.88;;;12.40;99.90;;;;;;4737744;30;20052;-86
2022/09/17 17:53:50;;;;;;;4.50;0.65;;;12.30;99.90;;;;;;4767975;30;20063;-87
2022/09/17 17:56:31;;;;;;;12.68;1.27;;;12.20;99.90;;;;;;4755803;30;20516;-90
2022/09/17 17:59:06;;;;;;;6.95;1.42;;;12.20;99.90;;;;;;4755159;30;20075;-89
2022/09/17 18:01:37;;;;;;;8.73;1.27;;;13.40;99.90;;;;;;4754928;30;20070;-86
2022/09/17 18:04:16;;;;;;;5.13;0.85;;;12.40;99.90;;;;;;4755193;30;20083;-89
2022/09/17 18:07:46;;;;;;;11.05;2.03;;;12.30;99.90;;;;;;4754977;30;20087;-88
2022/09/17 18:10:31;;;;;;;9.82;0.90;;;12.20;99.90;;;;;;4754550;30;20533;-87
2022/09/17 18:13:05;;;;;;;9.00;0.75;;;11.70;99.90;;;;;;4769805;30;20052;-90
2022/09/17 18:15:56;;;;;;;8.27;0.82;;;12.50;99.90;;;;;;4769846;30;20402;-88
2022/09/17 18:19:12;;;;;;;;;;;;;;;;;;;;;
2022/09/17 18:22:39;;;;;;;6.13;0.55;;;12.20;99.90;;;;;;4664094;30;20141;-90
2022/09/17 18:25:23;;;;;;;9.10;0.60;;;11.90;99.90;;;;;;4722045;24;20056;-90
2022/09/17 18:27:52;;;;;;;10.57;0.68;;;11.90;99.90;;;;;;4754696;30;20444;-91
2022/09/17 18:30:20;;;;;;;1.65;0.55;;;11.80;99.90;;;;;;4737611;30;20486;-90
2022/09/17 18:32:47;;;;;;;4.65;0.52;;;11.60;99.90;;;;;;4738048;30;20084;-86
2022/09/17 18:35:13;;;;;;;2.28;0.88;;;11.80;99.90;;;;;;4753719;30;20048;-89